createdAt,value
2023-05-15T00:01:10.132Z,12.20
2023-05-15T00:03:57.817Z,12.21
2023-05-15T00:06:46.943Z,12.06
2023-05-15T00:09:34.707Z,12.04
2023-05-15T00:12:22.438Z,12.10
2023-05-15T00:15:10.443Z,12.12
2023-05-15T00:17:58.145Z,12.12
2023-05-15T00:20:45.951Z,11.93
2023-05-15T00:23:35.062Z,12.09
2023-05-15T00:26:24.517Z,12.03
2023-05-15T00:29:12.216Z,12.14
2023-05-15T00:32:00.000Z,11.88
2023-05-15T00:34:47.883Z,11.93
2023-05-15T00:37:35.634Z,11.91
2023-05-15T00:40:25.483Z,11.86
2023-05-15T00:43:13.436Z,11.80
2023-05-15T00:46:02.033Z,11.81
2023-05-15T00:48:51.113Z,11.70
2023-05-15T00:51:38.908Z,11.64
2023-05-15T00:54:26.762Z,11.76
2023-05-15T00:57:16.923Z,11.71
2023-05-15T01:00:07.216Z,11.64
2023-05-15T01:02:55.179Z,11.53
2023-05-15T01:05:43.110Z,11.54
2023-05-15T01:08:35.631Z,11.48
2023-05-15T01:11:25.792Z,11.48
2023-05-15T01:14:14.931Z,11.57
2023-05-15T01:17:02.867Z,11.65
2023-05-15T01:19:52.520Z,11.65
2023-05-15T01:22:45.890Z,11.48
2023-05-15T01:25:54.072Z,11.93
2023-05-15T01:28:47.125Z,11.76
2023-05-15T01:31:36.394Z,11.79
2023-05-15T01:34:24.993Z,11.66
2023-05-15T01:37:15.597Z,11.61
2023-05-15T01:40:05.868Z,11.67
2023-05-15T01:42:56.171Z,11.57
2023-05-15T01:45:46.146Z,11.61
2023-05-15T01:48:36.114Z,11.49
2023-05-15T01:51:25.096Z,11.54
2023-05-15T01:54:14.626Z,11.60
2023-05-15T01:57:02.797Z,11.55
2023-05-15T01:59:51.434Z,11.57
2023-05-15T02:02:40.975Z,11.52
2023-05-15T02:05:29.623Z,11.56
2023-05-15T02:08:17.712Z,11.47
2023-05-15T02:11:05.891Z,11.55
2023-05-15T02:13:54.155Z,11.37
2023-05-15T02:16:42.011Z,11.62
2023-05-15T02:19:31.238Z,11.87
2023-05-15T02:22:18.928Z,11.49
2023-05-15T02:25:07.057Z,11.50
2023-05-15T02:27:58.622Z,11.43
2023-05-15T02:30:50.435Z,11.61
2023-05-15T02:33:43.474Z,11.56
2023-05-15T02:36:34.947Z,11.49
2023-05-15T02:39:23.629Z,11.92
2023-05-15T02:42:12.372Z,11.63
2023-05-15T02:45:01.323Z,11.83
2023-05-15T02:47:50.627Z,11.84
2023-05-15T02:50:38.416Z,11.65
2023-05-15T02:53:27.580Z,11.42
2023-05-15T02:56:15.370Z,11.43
2023-05-15T02:59:03.153Z,11.44
2023-05-15T03:01:50.922Z,11.58
2023-05-15T03:04:38.880Z,11.52
2023-05-15T03:07:27.076Z,11.29
2023-05-15T03:10:16.436Z,11.44
2023-05-15T03:13:05.306Z,11.36
2023-05-15T03:15:53.356Z,11.40
2023-05-15T03:18:41.571Z,11.46
2023-05-15T03:21:29.360Z,11.40
2023-05-15T03:24:17.062Z,11.25
2023-05-15T03:27:06.452Z,11.22
2023-05-15T03:29:54.160Z,11.21
2023-05-15T03:32:42.009Z,11.26
2023-05-15T03:35:29.788Z,11.15
2023-05-15T03:38:17.494Z,11.44
2023-05-15T03:41:05.247Z,11.44
2023-05-15T03:43:54.355Z,11.15
2023-05-15T03:46:42.141Z,11.27
2023-05-15T03:49:29.838Z,11.04
2023-05-15T03:52:17.835Z,11.19
2023-05-15T03:55:06.137Z,11.29
2023-05-15T03:57:53.912Z,11.62
2023-05-15T04:00:43.026Z,11.38
2023-05-15T04:03:32.671Z,11.18
2023-05-15T04:06:20.466Z,11.74
2023-05-15T04:09:08.640Z,11.84
2023-05-15T04:11:56.390Z,11.73
2023-05-15T04:14:44.108Z,11.62
2023-05-15T04:17:33.320Z,11.63
2023-05-15T04:20:21.843Z,11.57
2023-05-15T04:23:09.623Z,11.52
2023-05-15T04:25:57.394Z,11.61
2023-05-15T04:28:56.200Z,11.65
2023-05-15T04:31:50.361Z,11.76
2023-05-15T04:34:39.552Z,11.76
2023-05-15T04:37:27.290Z,11.68
2023-05-15T04:40:16.695Z,11.66
2023-05-15T04:43:06.030Z,11.65
2023-05-15T04:45:53.910Z,11.77
2023-05-15T04:48:41.767Z,11.87
2023-05-15T04:51:31.047Z,12.16
2023-05-15T04:54:18.809Z,12.06
2023-05-15T04:57:07.226Z,11.97
2023-05-15T04:59:54.944Z,11.95
2023-05-15T05:02:43.577Z,11.95
2023-05-15T05:05:31.626Z,11.98
2023-05-15T05:08:20.746Z,11.91
2023-05-15T05:11:08.475Z,11.80
2023-05-15T05:13:56.315Z,11.95
2023-05-15T05:16:45.884Z,12.10
2023-05-15T05:19:33.666Z,12.16
2023-05-15T05:22:21.324Z,12.08
2023-05-15T05:25:10.782Z,12.06
2023-05-15T05:27:58.529Z,11.98
2023-05-15T05:30:46.469Z,12.13
2023-05-15T05:33:34.675Z,12.00
2023-05-15T05:36:22.451Z,12.05
2023-05-15T05:40:56.058Z,11.90
2023-05-15T05:43:44.018Z,12.10
2023-05-15T05:46:32.012Z,12.12
2023-05-15T05:49:20.014Z,12.27
2023-05-15T05:52:11.163Z,12.52
2023-05-15T05:54:59.054Z,12.24
2023-05-15T05:57:48.555Z,12.17
2023-05-15T06:00:36.533Z,12.65
2023-05-15T06:03:26.029Z,12.47
2023-05-15T06:06:14.094Z,13.18
2023-05-15T06:09:02.363Z,12.78
2023-05-15T06:11:50.379Z,12.59
2023-05-15T06:14:39.658Z,12.66
2023-05-15T06:17:27.678Z,12.77
2023-05-15T06:20:16.644Z,12.73
2023-05-15T06:23:04.565Z,13.31
2023-05-15T06:25:52.507Z,13.23
2023-05-15T06:28:40.520Z,12.96
2023-05-15T06:31:30.001Z,12.89
2023-05-15T06:34:18.032Z,13.28
2023-05-15T06:37:06.337Z,12.77
2023-05-15T06:39:54.258Z,12.96
2023-05-15T06:42:42.224Z,13.03
2023-05-15T06:45:30.174Z,13.13
2023-05-15T06:48:19.602Z,14.00
2023-05-15T06:51:07.694Z,13.82
2023-05-15T06:53:55.629Z,13.34
2023-05-15T06:56:43.696Z,13.52
2023-05-15T06:59:34.526Z,13.09
2023-05-15T07:02:22.552Z,13.06
2023-05-15T07:05:12.593Z,12.83
2023-05-15T07:08:01.780Z,13.26
2023-05-15T07:10:50.464Z,13.99
2023-05-15T07:13:38.409Z,13.63
2023-05-15T07:16:26.414Z,13.20
2023-05-15T07:19:14.595Z,13.73
2023-05-15T07:22:03.876Z,13.57
2023-05-15T07:24:51.852Z,13.52
2023-05-15T07:27:39.762Z,13.81
2023-05-15T07:30:27.908Z,13.95
2023-05-15T07:33:16.051Z,14.22
2023-05-15T07:36:04.065Z,14.33
2023-05-15T07:38:53.423Z,14.74
2023-05-15T07:41:41.335Z,14.04
2023-05-15T07:44:29.332Z,14.10
2023-05-15T07:47:17.223Z,14.88
2023-05-15T07:50:05.762Z,14.20
2023-05-15T07:52:53.841Z,14.43
2023-05-15T07:55:44.444Z,14.94
2023-05-15T07:58:35.518Z,14.10
2023-05-15T08:01:23.434Z,14.41
2023-05-15T08:04:11.586Z,14.28
2023-05-15T08:06:59.640Z,14.36
2023-05-15T08:09:47.589Z,14.96
2023-05-15T08:12:36.949Z,14.95
2023-05-15T08:15:25.284Z,14.77
2023-05-15T08:18:13.398Z,14.76
2023-05-15T08:21:02.472Z,15.37
2023-05-15T08:23:53.427Z,15.22
2023-05-15T08:26:41.404Z,15.27
2023-05-15T08:29:30.837Z,14.90
2023-05-15T08:32:18.891Z,15.20
2023-05-15T08:35:07.987Z,15.47
2023-05-15T08:37:55.912Z,15.23
2023-05-15T08:40:48.566Z,14.69
2023-05-15T08:43:39.216Z,14.71
2023-05-15T08:46:29.668Z,15.04
2023-05-15T08:49:25.551Z,14.63
2023-05-15T08:52:13.864Z,14.66
2023-05-15T08:55:02.684Z,14.74
2023-05-15T08:57:51.482Z,14.59
2023-05-15T09:00:39.698Z,14.68
2023-05-15T09:03:29.127Z,15.06
2023-05-15T09:06:17.592Z,15.01
2023-05-15T09:09:06.456Z,15.05
2023-05-15T09:11:55.211Z,15.18
2023-05-15T09:14:43.615Z,15.11
2023-05-15T09:17:32.086Z,15.50
2023-05-15T09:20:29.204Z,15.44
2023-05-15T09:23:26.119Z,15.39
2023-05-15T09:26:14.294Z,15.42
2023-05-15T09:29:03.833Z,15.61
2023-05-15T09:31:52.091Z,15.81
2023-05-15T09:34:41.556Z,15.94
2023-05-15T09:37:32.683Z,15.54
2023-05-15T09:40:20.909Z,15.93
2023-05-15T09:43:11.458Z,15.88
2023-05-15T09:45:59.483Z,15.71
2023-05-15T09:48:47.950Z,16.05
2023-05-15T09:51:36.010Z,16.10
2023-05-15T09:54:27.553Z,16.68
2023-05-15T09:57:16.067Z,15.74
2023-05-15T10:00:11.817Z,15.39
2023-05-15T10:03:00.100Z,15.93
2023-05-15T10:05:48.510Z,15.79
2023-05-15T10:08:37.400Z,16.36
2023-05-15T10:11:27.661Z,16.37
2023-05-15T10:14:16.575Z,17.08
2023-05-15T10:17:04.768Z,16.88
2023-05-15T10:19:58.096Z,16.96
2023-05-15T10:22:49.144Z,16.74
2023-05-15T10:25:42.631Z,16.73
2023-05-15T10:28:33.175Z,16.81
2023-05-15T10:31:21.999Z,17.08
2023-05-15T10:34:11.227Z,17.39
2023-05-15T10:37:00.422Z,17.50
2023-05-15T10:39:49.151Z,17.86
2023-05-15T10:42:38.393Z,17.33
2023-05-15T10:45:28.203Z,17.41
2023-05-15T10:48:17.156Z,17.70
2023-05-15T10:51:05.205Z,17.42
2023-05-15T10:53:53.524Z,18.15
2023-05-15T10:56:43.521Z,17.96
2023-05-15T10:59:35.964Z,18.39
2023-05-15T11:02:29.495Z,17.86
2023-05-15T11:05:17.599Z,17.83
2023-05-15T11:08:26.092Z,18.36
2023-05-15T11:11:47.461Z,18.12
2023-05-15T11:14:37.880Z,18.26
2023-05-15T11:17:27.882Z,17.82
2023-05-15T11:20:15.973Z,17.95
2023-05-15T11:23:03.946Z,17.77
2023-05-15T11:25:55.149Z,18.16
2023-05-15T11:28:47.452Z,17.86
2023-05-15T11:31:38.231Z,17.94
2023-05-15T11:34:34.380Z,18.06
2023-05-15T11:37:25.426Z,17.97
2023-05-15T11:40:21.345Z,17.30
2023-05-15T11:43:18.219Z,17.95
2023-05-15T11:46:08.662Z,18.16
2023-05-15T11:48:58.395Z,18.46
2023-05-15T11:51:51.608Z,17.61
2023-05-15T11:54:39.843Z,17.42
2023-05-15T11:57:28.200Z,17.95
2023-05-15T12:00:17.137Z,18.40
2023-05-15T12:03:05.321Z,17.99
2023-05-15T12:05:59.665Z,17.64
2023-05-15T12:08:53.763Z,17.99
2023-05-15T12:11:41.900Z,18.12
2023-05-15T12:14:29.971Z,18.29
2023-05-15T12:17:19.632Z,18.19
2023-05-15T12:20:11.078Z,18.38
2023-05-15T12:22:59.328Z,18.78
2023-05-15T12:25:50.811Z,18.17
2023-05-15T12:28:39.709Z,18.03
2023-05-15T12:31:27.861Z,18.12
2023-05-15T12:34:16.157Z,18.24
2023-05-15T12:37:04.416Z,18.37
2023-05-15T12:39:54.909Z,18.48
2023-05-15T12:42:45.224Z,18.55
2023-05-15T12:45:35.503Z,18.28
2023-05-15T12:48:24.176Z,18.24
2023-05-15T12:51:12.584Z,18.32
2023-05-15T12:54:00.638Z,18.34
2023-05-15T12:56:49.754Z,18.36
2023-05-15T12:59:40.129Z,18.46
2023-05-15T13:02:29.262Z,18.14
2023-05-15T13:05:17.422Z,18.49
2023-05-15T13:08:07.496Z,18.40
2023-05-15T13:10:59.017Z,18.54
2023-05-15T13:13:48.460Z,18.56
2023-05-15T13:16:38.065Z,18.78
2023-05-15T13:19:26.144Z,18.61
2023-05-15T13:22:14.115Z,18.60
2023-05-15T13:25:02.135Z,18.65
2023-05-15T13:27:50.143Z,18.71
2023-05-15T13:30:41.771Z,18.67
2023-05-15T13:33:32.060Z,18.69
2023-05-15T13:36:20.097Z,18.76
2023-05-15T13:39:08.132Z,18.60
2023-05-15T13:41:56.091Z,18.67
2023-05-15T13:44:44.072Z,18.63
2023-05-15T13:47:32.021Z,18.73
2023-05-15T13:50:21.437Z,18.60
2023-05-15T13:53:09.463Z,18.70
2023-05-15T13:55:57.550Z,18.56
2023-05-15T13:58:45.640Z,18.74
2023-05-15T14:01:33.684Z,18.86
2023-05-15T14:04:21.684Z,18.84
2023-05-15T14:07:11.278Z,18.55
2023-05-15T14:09:59.373Z,18.50
2023-05-15T14:12:47.315Z,18.66
2023-05-15T14:15:35.264Z,18.95
2023-05-15T14:18:23.205Z,18.73
2023-05-15T14:21:11.172Z,18.33
2023-05-15T14:24:00.480Z,18.75
2023-05-15T14:26:48.536Z,18.70
2023-05-15T14:29:36.837Z,18.70
2023-05-15T14:32:25.118Z,18.65
2023-05-15T14:35:13.067Z,18.72
2023-05-15T14:38:00.979Z,18.75
2023-05-15T14:40:50.416Z,18.68
2023-05-15T14:43:38.404Z,18.74
2023-05-15T14:46:26.397Z,18.73
2023-05-15T14:49:14.482Z,18.52
2023-05-15T14:52:02.589Z,18.72
2023-05-15T14:55:05.002Z,18.80
2023-05-15T14:57:59.313Z,18.74
2023-05-15T15:00:48.369Z,18.68
2023-05-15T15:03:36.397Z,18.77
2023-05-15T15:06:24.414Z,18.54
2023-05-15T15:09:12.360Z,18.58
2023-05-15T15:12:00.473Z,18.59
2023-05-15T15:14:49.929Z,18.61
2023-05-15T15:20:27.358Z,18.65
2023-05-15T15:23:15.708Z,18.39
2023-05-15T15:26:03.694Z,18.54
2023-05-15T15:28:51.785Z,18.61
2023-05-15T15:31:41.113Z,18.51
2023-05-15T15:34:29.028Z,18.41
2023-05-15T15:37:17.053Z,18.51
2023-05-15T15:40:07.208Z,18.49
2023-05-15T15:42:55.133Z,18.48
2023-05-15T15:45:43.105Z,18.32
2023-05-15T15:48:32.687Z,18.25
2023-05-15T15:51:21.041Z,18.09
2023-05-15T15:54:08.972Z,18.20
2023-05-15T15:56:56.945Z,18.34
2023-05-15T15:59:45.120Z,18.25
2023-05-15T16:02:33.124Z,18.34
2023-05-15T16:05:22.659Z,18.21
2023-05-15T16:08:10.640Z,18.03
2023-05-15T16:10:58.659Z,18.30
2023-05-15T16:13:46.692Z,18.01
2023-05-15T16:16:34.631Z,17.73
2023-05-15T16:19:23.091Z,17.99
2023-05-15T16:22:12.417Z,17.94
2023-05-15T16:25:00.381Z,18.04
2023-05-15T16:27:48.344Z,18.09
2023-05-15T16:30:48.009Z,17.74
2023-05-15T16:33:37.294Z,17.82
2023-05-15T16:36:25.300Z,17.78
2023-05-15T16:39:14.607Z,17.99
2023-05-15T16:42:03.215Z,17.96
2023-05-15T16:44:51.203Z,17.83
2023-05-15T16:47:41.291Z,17.70
2023-05-15T16:50:30.441Z,17.80
2023-05-15T16:53:18.809Z,17.59
2023-05-15T16:56:08.670Z,17.64
2023-05-15T16:58:56.617Z,17.55
2023-05-15T17:01:44.677Z,17.54
2023-05-15T17:04:35.175Z,17.53
2023-05-15T17:07:23.176Z,17.37
2023-05-15T17:10:12.653Z,17.26
2023-05-15T17:13:01.992Z,17.42
2023-05-15T17:15:51.266Z,17.26
2023-05-15T17:18:39.995Z,17.20
2023-05-15T17:21:28.104Z,17.14
2023-05-15T17:24:16.347Z,17.03
2023-05-15T17:27:04.348Z,17.02
2023-05-15T17:29:53.779Z,17.19
2023-05-15T17:32:44.574Z,17.03
2023-05-15T17:35:33.223Z,16.77
2023-05-15T17:38:21.475Z,16.76
2023-05-15T17:41:09.556Z,16.91
2023-05-15T17:43:57.751Z,17.18
2023-05-15T17:46:47.122Z,16.98
2023-05-15T17:49:35.285Z,16.92
2023-05-15T17:52:23.257Z,16.76
2023-05-15T17:55:11.263Z,16.85
2023-05-15T17:57:59.234Z,16.83
2023-05-15T18:00:47.274Z,16.79
2023-05-15T18:03:36.599Z,16.53
2023-05-15T18:06:24.750Z,16.35
2023-05-15T18:09:12.698Z,16.41
2023-05-15T18:12:00.754Z,16.45
2023-05-15T18:14:48.893Z,16.36
2023-05-15T18:17:37.009Z,16.45
2023-05-15T18:20:26.606Z,16.62
2023-05-15T18:23:14.615Z,16.78
2023-05-15T18:26:02.574Z,16.43
2023-05-15T18:28:50.844Z,16.53
2023-05-15T18:31:38.967Z,16.35
2023-05-15T18:34:27.017Z,16.36
2023-05-15T18:37:16.336Z,16.16
2023-05-15T18:40:05.444Z,16.25
2023-05-15T18:42:55.307Z,16.13
2023-05-15T18:45:43.336Z,16.17
2023-05-15T18:48:31.897Z,16.21
2023-05-15T18:51:20.245Z,16.22
2023-05-15T18:54:09.636Z,16.24
2023-05-15T18:56:57.766Z,16.18
2023-05-15T18:59:45.776Z,16.01
2023-05-15T19:02:33.966Z,15.91
2023-05-15T19:05:22.470Z,16.15
2023-05-15T19:08:10.557Z,16.01
2023-05-15T19:11:01.636Z,15.96
2023-05-15T19:13:49.890Z,16.00
2023-05-15T19:16:37.962Z,15.97
2023-05-15T19:19:26.322Z,16.17
2023-05-15T19:22:14.677Z,16.23
2023-05-15T19:25:02.686Z,16.18
2023-05-15T19:27:52.205Z,16.40
2023-05-15T19:30:40.405Z,15.77
2023-05-15T19:33:28.353Z,15.91
2023-05-15T19:36:19.371Z,15.70
2023-05-15T19:39:07.610Z,15.54
2023-05-15T19:41:57.624Z,15.39
2023-05-15T19:44:47.004Z,15.48
2023-05-15T19:47:35.414Z,15.40
2023-05-15T19:50:23.842Z,15.11
2023-05-15T19:53:12.339Z,15.48
2023-05-15T19:56:00.433Z,15.36
2023-05-15T19:58:48.571Z,15.37
2023-05-15T20:01:37.989Z,15.42
2023-05-15T20:04:26.091Z,15.41
2023-05-15T20:07:14.105Z,15.38
2023-05-15T20:10:02.393Z,15.22
2023-05-15T20:12:50.407Z,15.33
2023-05-15T20:15:40.145Z,15.31
2023-05-15T20:18:32.163Z,15.39
2023-05-15T20:21:21.832Z,15.33
2023-05-15T20:24:10.386Z,15.24
2023-05-15T20:26:58.554Z,15.13
2023-05-15T20:29:46.562Z,15.09
2023-05-15T20:32:34.973Z,15.14
2023-05-15T20:35:25.175Z,15.14
2023-05-15T20:38:13.900Z,15.13
2023-05-15T20:41:02.158Z,15.17
2023-05-15T20:43:50.091Z,15.06
2023-05-15T20:46:39.967Z,14.94
2023-05-15T20:49:27.937Z,15.19
2023-05-15T20:52:17.315Z,15.07
2023-05-15T20:55:05.861Z,15.12
2023-05-15T20:57:53.875Z,15.09
2023-05-15T21:00:41.763Z,15.17
2023-05-15T21:03:30.329Z,15.03
2023-05-15T21:06:18.372Z,14.99
2023-05-15T21:09:08.516Z,15.22
2023-05-15T21:11:56.621Z,15.28
2023-05-15T21:14:44.598Z,15.38
2023-05-15T21:17:32.654Z,15.03
2023-05-15T21:20:20.761Z,15.17
2023-05-15T21:23:08.809Z,15.00
2023-05-15T21:25:58.196Z,15.01
2023-05-15T21:28:46.249Z,15.00
2023-05-15T21:31:34.252Z,15.32
2023-05-15T21:34:22.569Z,15.40
2023-05-15T21:37:10.535Z,15.07
2023-05-15T21:39:58.529Z,14.76
2023-05-15T21:42:47.790Z,14.95
2023-05-15T21:45:35.793Z,15.03
2023-05-15T21:48:23.778Z,14.87
2023-05-15T21:51:11.814Z,14.95
2023-05-15T21:53:59.817Z,14.94
2023-05-15T21:56:47.728Z,14.91
2023-05-15T21:59:37.085Z,14.74
2023-05-15T22:02:25.013Z,14.70
2023-05-15T22:05:13.086Z,14.67
2023-05-15T22:08:01.237Z,14.65
2023-05-15T22:10:49.433Z,14.59
2023-05-15T22:13:37.517Z,14.68
2023-05-15T22:16:26.941Z,14.50
2023-05-15T22:19:29.047Z,14.48
2023-05-15T22:22:21.102Z,14.88
2023-05-15T22:25:10.080Z,14.64
2023-05-15T22:27:58.000Z,14.63
2023-05-15T22:30:45.986Z,14.55
2023-05-15T22:33:35.383Z,14.75
2023-05-15T22:36:23.342Z,14.66
2023-05-15T22:39:11.449Z,14.58
2023-05-15T22:41:59.382Z,14.33
2023-05-15T22:44:47.689Z,14.83
2023-05-15T22:47:35.747Z,14.71
2023-05-15T22:50:25.377Z,14.99
2023-05-15T22:53:13.675Z,14.57
2023-05-15T22:56:01.598Z,14.61
2023-05-15T22:58:49.716Z,14.88
2023-05-15T23:01:37.797Z,14.47
2023-05-15T23:04:26.126Z,14.60
2023-05-15T23:07:17.309Z,14.82
2023-05-15T23:10:05.872Z,14.58
2023-05-15T23:12:53.903Z,14.65
2023-05-15T23:15:44.174Z,14.54
2023-05-15T23:18:32.254Z,14.57
2023-05-15T23:21:20.265Z,14.52
2023-05-15T23:24:09.719Z,14.54
2023-05-15T23:26:57.750Z,14.55
2023-05-15T23:29:46.222Z,14.60
2023-05-15T23:32:34.288Z,14.63
2023-05-15T23:35:22.372Z,14.57
2023-05-15T23:38:10.327Z,14.51
2023-05-15T23:40:59.773Z,14.29
2023-05-15T23:43:49.687Z,14.31
2023-05-15T23:46:38.799Z,14.21
2023-05-15T23:49:26.900Z,14.21
2023-05-15T23:52:14.937Z,14.24
2023-05-15T23:55:02.909Z,14.34
2023-05-15T23:57:52.286Z,14.25
